Time;durP1;ratioP1;P1;durP2;ratioP2;P2;SDS_P1;SDS_P2;PMS_P1;PMS_P2;Temp;Humidity;BMP_temperature;BMP_pressure;BME280_temperature;BME280_humidity;BME280_pressure;Samples;Min_cycle;Max_cycle;Signal;HPM_P1;HPM_P2
2023/11/12 00:01:16;;;;;;;7.47;5.18;;;;;;;-146.27;88.12;33348.91;5030103;28;20009;-73
2023/11/12 00:03:44;;;;;;;7.80;4.38;;;;;;;-146.27;89.01;33321.13;5032194;28;20610;-73
2023/11/12 00:06:11;;;;;;;9.25;5.35;;;;;;;-146.27;88.26;33366.78;5036409;28;20079;-73
2023/11/12 00:08:36;;;;;;;16.23;5.03;;;;;;;-146.27;87.56;33398.53;5038984;28;20577;-73
2023/11/12 00:11:02;;;;;;;9.95;4.93;;;;;;;-146.27;87.70;33394.56;5029760;28;20083;-73
2023/11/12 00:13:28;;;;;;;11.30;5.53;;;;;;;-146.27;88.26;33430.28;5028121;28;20032;-73
2023/11/12 00:15:55;;;;;;;9.50;4.88;;;;;;;-146.27;88.84;33406.47;5023041;28;20389;-73
2023/11/12 00:18:23;;;;;;;8.13;4.40;;;;;;;-146.27;88.67;33382.66;5021611;28;20042;-71
2023/11/12 00:20:51;;;;;;;9.73;4.68;;;;;;;-146.27;88.18;33479.88;5038642;28;20029;-72
2023/11/12 00:23:16;;;;;;;10.15;4.57;;;;;;;-146.27;88.13;33422.34;5038444;28;20684;-71
2023/11/12 00:25:42;;;;;;;11.48;4.65;;;;;;;-146.27;88.26;33434.22;5027248;28;20029;-73
2023/11/12 00:28:07;;;;;;;9.70;4.80;;;;;;;-146.27;88.56;33456.06;5022452;28;20022;-73
2023/11/12 00:30:33;;;;;;;9.27;4.97;;;;;;;-146.27;88.60;33378.69;5013324;28;20030;-72
2023/11/12 00:32:58;;;;;;;9.15;5.20;;;;;;;-146.27;88.56;33473.91;5028533;28;20664;-72
2023/11/12 00:35:24;;;;;;;9.43;4.90;;;;;;;-146.27;88.52;33444.16;5031211;28;20470;-72
2023/11/12 00:37:49;;;;;;;8.15;5.03;;;;;;;-146.27;88.24;33479.88;5015625;28;20060;-72
2023/11/12 00:40:16;;;;;;;9.23;5.28;;;;;;;-146.27;88.78;33414.41;5031217;28;20022;-71
2023/11/12 00:42:42;;;;;;;14.50;6.28;;;;;;;-146.27;88.53;33487.81;5028938;28;20083;-73
2023/11/12 00:45:08;;;;;;;11.15;5.13;;;;;;;-146.27;88.57;33462.00;5036677;28;20029;-73
2023/11/12 00:47:33;;;;;;;15.60;6.03;;;;;;;-146.27;88.53;33467.97;5037403;28;20032;-72
2023/11/12 00:49:59;;;;;;;10.63;4.68;;;;;;;-146.27;88.44;33513.59;5031790;28;20025;-72
2023/11/12 00:52:25;;;;;;;7.80;5.40;;;;;;;-146.27;88.51;33505.66;5014936;28;20025;-72
2023/11/12 00:54:50;;;;;;;8.80;5.45;;;;;;;-146.27;88.30;33507.66;5027864;28;20398;-72
2023/11/12 00:57:16;;;;;;;12.27;5.50;;;;;;;-146.27;87.99;33537.41;5026847;28;20704;-72
2023/11/12 00:59:42;;;;;;;9.20;5.40;;;;;;;-146.27;88.21;33531.47;5030347;28;20034;-72
2023/11/12 01:02:09;;;;;;;9.70;5.38;;;;;;;-146.27;87.81;33541.38;5033748;28;20034;-73
2023/11/12 01:04:35;;;;;;;7.00;4.93;;;;;;;-146.27;87.80;33563.22;5038142;28;20114;-72
2023/11/12 01:07:01;;;;;;;10.43;5.22;;;;;;;-146.27;88.21;33545.34;5015220;28;20486;-72
2023/11/12 01:09:28;;;;;;;6.97;4.80;;;;;;;-146.27;88.46;33527.50;5025517;28;20394;-72
2023/11/12 01:11:54;;;;;;;10.25;4.85;;;;;;;-146.27;88.78;33521.53;5019371;28;20034;-72
2023/11/12 01:14:19;;;;;;;6.88;4.95;;;;;;;-146.27;88.57;33537.41;5028731;28;20029;-72
2023/11/12 01:16:45;;;;;;;7.35;4.82;;;;;;;-146.27;88.29;33569.16;5016240;28;20168;-73
2023/11/12 01:19:10;;;;;;;11.43;5.25;;;;;;;-146.27;88.83;33571.16;5016161;28;20116;-72
2023/11/12 01:21:35;;;;;;;10.82;5.28;;;;;;;-146.27;88.11;33610.84;5020430;28;20036;-73
2023/11/12 01:24:01;;;;;;;12.40;5.18;;;;;;;-146.27;88.29;33557.25;5032450;28;20029;-72
2023/11/12 01:26:27;;;;;;;6.53;4.50;;;;;;;-146.27;88.21;33565.19;5010511;28;20117;-72
2023/11/12 01:28:52;;;;;;;10.00;4.97;;;;;;;-146.27;88.40;33571.16;5026325;28;20083;-72
2023/11/12 01:31:18;;;;;;;9.15;6.05;;;;;;;-146.27;88.21;33561.22;5034971;28;20074;-71
2023/11/12 01:33:44;;;;;;;13.85;5.53;;;;;;;-146.27;88.67;33581.06;5043740;28;20567;-73
2023/11/12 01:36:11;;;;;;;9.75;5.05;;;;;;;-146.27;88.43;33573.13;5031753;28;20117;-73
2023/11/12 01:38:36;;;;;;;10.15;5.60;;;;;;;-146.27;88.48;33565.19;5049132;28;20366;-73
2023/11/12 01:41:03;;;;;;;11.07;5.90;;;;;;;-146.27;88.57;33525.50;5028675;28;20033;-72
2023/11/12 01:43:30;;;;;;;11.20;5.47;;;;;;;-146.27;88.80;33485.81;5021041;28;20030;-73
2023/11/12 01:45:56;;;;;;;10.98;5.50;;;;;;;-146.27;88.98;33541.38;5036513;28;20031;-73
2023/11/12 01:48:22;;;;;;;8.98;5.75;;;;;;;-146.27;88.70;33521.53;5043190;28;20021;-73
2023/11/12 01:50:47;;;;;;;12.45;5.40;;;;;;;-146.27;89.29;33497.72;5019789;28;20069;-73
2023/11/12 01:53:14;;;;;;;12.63;6.53;;;;;;;-146.27;89.18;33430.28;5032989;28;20037;-72
2023/11/12 01:55:40;;;;;;;12.80;6.72;;;;;;;-146.27;89.29;33454.06;5031319;28;20477;-72
2023/11/12 01:58:09;;;;;;;12.55;6.00;;;;;;;-146.27;89.40;33424.31;5039961;28;20009;-72
2023/11/12 02:00:37;;;;;;;14.68;6.97;;;;;;;-146.27;89.40;33416.38;5031308;28;20040;-73
2023/11/12 02:03:04;;;;;;;16.25;7.13;;;;;;;-146.27;89.27;33404.47;5034625;28;20025;-73
2023/11/12 02:05:30;;;;;;;16.73;7.30;;;;;;;-146.27;89.32;33390.59;5042629;28;20028;-72
2023/11/12 02:07:56;;;;;;;11.00;7.43;;;;;;;-146.27;89.32;33410.44;5022321;28;20872;-73
2023/11/12 02:10:22;;;;;;;14.23;6.65;;;;;;;-146.27;89.42;33348.91;5017141;28;20207;-73
2023/11/12 02:12:48;;;;;;;14.95;7.55;;;;;;;-146.27;89.29;33414.41;5035339;28;20095;-73
2023/11/12 02:15:15;;;;;;;12.85;7.47;;;;;;;-146.27;88.99;33317.16;5030022;28;20029;-73
2023/11/12 02:17:44;;;;;;;15.57;8.18;;;;;;;-146.27;89.45;33366.78;5028933;28;20049;-72
2023/11/12 02:20:11;;;;;;;21.00;7.28;;;;;;;-146.27;89.25;33362.81;5025648;28;20474;-72
2023/11/12 02:22:37;;;;;;;13.65;7.18;;;;;;;-146.27;89.40;33329.06;5026532;28;20082;-72
2023/11/12 02:25:06;;;;;;;12.80;6.78;;;;;;;-146.27;89.51;33311.22;5037625;28;20409;-74
2023/11/12 02:27:32;;;;;;;11.50;6.65;;;;;;;-146.27;89.73;33293.38;5028476;28;20028;-70
2023/11/12 02:29:57;;;;;;;13.52;7.70;;;;;;;-146.27;89.46;33331.06;5035131;28;20033;-72
2023/11/12 02:32:30;;;;;;;14.10;6.70;;;;;;;-146.27;89.72;33297.31;5036572;28;20053;-72
2023/11/12 02:34:56;;;;;;;11.97;6.50;;;;;;;-146.27;89.26;33299.31;5032811;28;20393;-72
2023/11/12 02:37:23;;;;;;;11.45;7.45;;;;;;;-146.27;89.35;33295.34;5031530;28;20038;-72
2023/11/12 02:39:49;;;;;;;16.58;7.60;;;;;;;-146.27;89.33;33287.41;5031185;28;20104;-72
2023/11/12 02:42:16;;;;;;;13.70;7.15;;;;;;;-146.27;89.45;33295.34;5048489;28;20183;-72
2023/11/12 02:44:42;;;;;;;13.68;7.85;;;;;;;-146.27;89.51;33295.34;5047447;28;20048;-72
2023/11/12 02:47:08;;;;;;;15.27;7.07;;;;;;;-146.27;89.67;33277.50;5024024;28;20025;-72
2023/11/12 02:49:55;;;;;;;10.90;6.82;;;;;;;-146.27;89.56;33271.53;5029295;28;20036;-71
2023/11/12 02:52:20;;;;;;;16.98;6.68;;;;;;;-146.27;89.35;33287.41;5033551;28;20029;-72
2023/11/12 02:54:46;;;;;;;11.80;6.45;;;;;;;-146.27;89.28;33255.66;5045409;28;20048;-72
2023/11/12 02:57:11;;;;;;;10.88;6.22;;;;;;;-146.27;89.62;33267.56;5045122;28;20116;-72
2023/11/12 02:59:37;;;;;;;10.48;6.55;;;;;;;-146.27;89.35;33271.53;5040984;28;20110;-72
2023/11/12 03:02:02;;;;;;;15.07;7.43;;;;;;;-146.27;89.41;33289.41;5043739;28;20368;-72
2023/11/12 03:04:28;;;;;;;12.38;7.47;;;;;;;-146.27;89.32;33243.75;5037760;28;20087;-72
2023/11/12 03:06:53;;;;;;;9.68;6.55;;;;;;;-146.27;89.48;33275.50;5036656;28;20029;-72
2023/11/12 03:09:19;;;;;;;12.20;6.88;;;;;;;-146.27;89.51;33249.72;5026982;28;20036;-72
2023/11/12 03:11:46;;;;;;;15.43;6.45;;;;;;;-146.27;89.34;33271.53;5027621;28;20025;-72
2023/11/12 03:14:12;;;;;;;9.68;5.82;;;;;;;-146.27;89.29;33239.78;5022272;28;20029;-72
2023/11/12 03:16:37;;;;;;;12.32;6.75;;;;;;;-146.27;89.37;33265.59;5038575;28;20028;-72
2023/11/12 03:19:02;;;;;;;10.65;6.65;;;;;;;-146.27;89.27;33235.81;5033244;28;20033;-72
2023/11/12 03:21:28;;;;;;;13.95;6.93;;;;;;;-146.27;89.53;33253.69;5029494;28;20102;-72
2023/11/12 03:23:55;;;;;;;11.43;6.43;;;;;;;-146.27;89.28;33261.63;5029269;28;20496;-72
2023/11/12 03:26:20;;;;;;;13.15;7.35;;;;;;;-146.27;89.71;33235.81;5047657;28;20092;-71
2023/11/12 03:28:45;;;;;;;12.15;6.78;;;;;;;-146.27;89.78;33215.97;5027803;28;20580;-70
2023/11/12 03:31:11;;;;;;;10.50;7.05;;;;;;;-146.27;89.52;33210.03;5036913;28;20032;-72
2023/11/12 03:33:36;;;;;;;10.55;5.80;;;;;;;-146.27;89.42;33184.25;5029159;28;20091;-71
2023/11/12 03:36:02;;;;;;;16.70;7.07;;;;;;;-146.27;89.48;33176.31;5024597;28;20068;-71
2023/11/12 03:38:28;;;;;;;12.23;6.32;;;;;;;-146.27;89.48;33164.41;5038481;28;20036;-72
2023/11/12 03:40:55;;;;;;;11.32;6.72;;;;;;;-146.27;89.58;33196.13;5040012;28;20038;-72
2023/11/12 03:43:20;;;;;;;12.52;6.72;;;;;;;-146.27;89.34;33164.41;5032048;28;20029;-71
2023/11/12 03:45:45;;;;;;;12.98;6.47;;;;;;;-146.27;89.42;33152.50;5033107;28;20041;-71
2023/11/12 03:48:11;;;;;;;18.92;7.35;;;;;;;-146.27;89.28;33164.41;5024774;28;20025;-71
2023/11/12 03:50:36;;;;;;;15.80;6.65;;;;;;;-146.27;89.53;33196.13;5022290;28;20034;-71
2023/11/12 03:53:02;;;;;;;13.57;7.65;;;;;;;-146.27;89.57;33142.56;5020317;28;20166;-71
2023/11/12 03:55:27;;;;;;;13.88;7.35;;;;;;;-146.27;89.53;33160.44;5038459;28;20095;-72
2023/11/12 03:57:53;;;;;;;11.23;6.85;;;;;;;-146.27;89.56;33154.47;5043916;28;20370;-72
2023/11/12 04:00:18;;;;;;;14.80;8.57;;;;;;;-146.27;89.69;33144.56;5044345;28;20049;-72
2023/11/12 04:02:44;;;;;;;24.05;8.50;;;;;;;-146.27;89.72;33116.78;5037609;28;20039;-71
2023/11/12 04:05:09;;;;;;;14.38;8.07;;;;;;;-146.27;89.59;33122.72;5031475;28;20032;-71
2023/11/12 04:07:35;;;;;;;19.15;8.57;;;;;;;-146.27;89.56;33122.72;5016422;28;20453;-72
2023/11/12 04:10:00;;;;;;;12.63;8.43;;;;;;;-146.27;89.46;33091.00;5019452;28;20029;-71
2023/11/12 04:12:25;;;;;;;14.75;9.23;;;;;;;-146.27;89.75;33085.03;5030105;28;20106;-71
2023/11/12 04:14:52;;;;;;;15.00;8.02;;;;;;;-146.27;89.71;33081.06;5024035;28;20059;-71
2023/11/12 04:17:17;;;;;;;19.20;9.82;;;;;;;-146.27;89.75;33063.22;5034250;28;20034;-71
2023/11/12 04:19:43;;;;;;;23.08;9.45;;;;;;;-146.27;89.62;33081.06;5035473;28;20043;-72
2023/11/12 04:22:09;;;;;;;14.38;8.95;;;;;;;-146.27;89.62;33069.16;5029713;28;20087;-71
2023/11/12 04:24:34;;;;;;;20.35;10.35;;;;;;;-146.27;89.67;33061.22;5030277;28;20498;-72
2023/11/12 04:26:59;;;;;;;18.95;10.20;;;;;;;-146.27;89.91;33057.25;5014834;28;20062;-72
2023/11/12 04:29:26;;;;;;;23.45;10.10;;;;;;;-146.27;89.57;33005.69;5014674;28;20025;-72
2023/11/12 04:31:51;;;;;;;17.85;9.95;;;;;;;-146.27;89.67;32999.72;5018906;28;20036;-70
2023/11/12 04:34:17;;;;;;;23.70;10.88;;;;;;;-146.27;89.69;33015.59;5018542;28;20033;-72
2023/11/12 04:36:43;;;;;;;22.92;11.65;;;;;;;-146.27;89.75;33001.72;5030085;28;20502;-71
2023/11/12 04:39:09;;;;;;;22.88;11.50;;;;;;;-146.27;89.56;33017.56;5024018;28;20436;-71
2023/11/12 04:41:34;;;;;;;18.45;11.43;;;;;;;-146.27;89.45;32995.75;5027276;28;20091;-72
2023/11/12 04:44:00;;;;;;;21.52;11.77;;;;;;;-146.27;89.59;33003.69;5030825;28;20022;-72
2023/11/12 04:46:26;;;;;;;23.25;11.60;;;;;;;-146.27;89.43;33001.72;5015590;28;20033;-72
2023/11/12 04:48:52;;;;;;;21.02;11.32;;;;;;;-146.27;89.51;32967.97;5043406;28;20021;-72
2023/11/12 04:51:17;;;;;;;24.48;12.63;;;;;;;-146.27;89.56;32977.91;5042847;28;20400;-72
2023/11/12 04:53:43;;;;;;;22.85;11.30;;;;;;;-146.27;89.48;33013.63;5030653;28;20024;-72
2023/11/12 04:56:10;;;;;;;19.83;11.48;;;;;;;-146.27;89.51;33003.69;5019851;28;20080;-71
2023/11/12 04:58:35;;;;;;;21.30;11.57;;;;;;;-146.27;89.32;32977.91;5016476;28;20041;-71
2023/11/12 05:01:03;;;;;;;24.15;11.82;;;;;;;-146.27;89.39;32962.03;5019355;28;20033;-71
2023/11/12 05:03:28;;;;;;;26.67;12.80;;;;;;;-146.27;89.55;32954.09;5045720;28;20559;-71
2023/11/12 05:05:53;;;;;;;22.95;12.55;;;;;;;-146.27;89.21;32969.97;5030235;28;20025;-71
2023/11/12 05:08:19;;;;;;;20.58;12.10;;;;;;;-146.27;89.51;32983.84;5023130;28;20670;-71
2023/11/12 05:10:45;;;;;;;21.65;12.48;;;;;;;-146.27;89.00;32964.00;5015027;28;20109;-72
2023/11/12 05:13:10;;;;;;;26.23;12.80;;;;;;;-146.27;89.17;32977.91;5038146;28;20056;-71
2023/11/12 05:15:36;;;;;;;22.65;12.85;;;;;;;-146.27;89.06;32979.88;5032142;28;20052;-72
2023/11/12 05:18:05;;;;;;;20.20;12.88;;;;;;;-146.27;89.08;32973.94;5025201;28;20045;-71
2023/11/12 05:20:32;;;;;;;21.55;13.57;;;;;;;-146.27;89.05;32999.72;5041176;28;20029;-72
2023/11/12 05:22:58;;;;;;;24.23;13.35;;;;;;;-146.27;88.93;32977.91;5024117;28;20054;-73
2023/11/12 05:25:23;;;;;;;23.33;13.73;;;;;;;-146.27;89.16;33001.72;5036295;28;20033;-72
2023/11/12 05:27:48;;;;;;;32.42;13.82;;;;;;;-146.27;89.21;33039.41;5022574;28;20026;-72
2023/11/12 05:30:14;;;;;;;23.70;13.98;;;;;;;-146.27;89.19;32983.84;5035216;28;20029;-72
2023/11/12 05:32:39;;;;;;;23.60;13.90;;;;;;;-146.27;88.91;32991.78;5024556;28;20029;-72
2023/11/12 05:35:05;;;;;;;29.52;14.85;;;;;;;-146.27;88.83;33001.72;5028913;28;20021;-73
2023/11/12 05:37:30;;;;;;;28.40;14.52;;;;;;;-146.27;88.85;32987.81;5046761;28;20402;-72
2023/11/12 05:39:56;;;;;;;24.23;13.30;;;;;;;-146.27;88.70;32971.94;5022410;28;20052;-72
2023/11/12 05:42:21;;;;;;;24.42;14.27;;;;;;;-146.27;88.64;32977.91;5045099;28;20024;-72
2023/11/12 05:44:47;;;;;;;25.65;12.88;;;;;;;-146.27;88.63;33001.72;5042922;28;21001;-72
2023/11/12 05:47:13;;;;;;;19.63;12.60;;;;;;;-146.27;88.69;32987.81;5038881;28;20116;-72
2023/11/12 05:49:38;;;;;;;24.27;12.98;;;;;;;-146.27;88.55;32989.81;5035289;28;20029;-72
2023/11/12 05:52:04;;;;;;;20.40;12.38;;;;;;;-146.27;88.59;33007.66;5015406;28;20021;-72
2023/11/12 05:54:29;;;;;;;22.20;13.38;;;;;;;-146.27;88.83;33023.53;5023121;28;20478;-72
2023/11/12 05:56:55;;;;;;;22.05;12.60;;;;;;;-146.27;88.56;32993.78;5030062;28;20018;-71
2023/11/12 05:59:21;;;;;;;24.30;12.90;;;;;;;-146.27;88.72;32989.81;5035178;28;20020;-71
2023/11/12 06:01:47;;;;;;;26.67;12.85;;;;;;;-146.27;88.60;33029.47;5031593;28;20112;-71
2023/11/12 06:04:12;;;;;;;20.83;12.70;;;;;;;-146.27;88.57;33049.31;5031286;28;20108;-71
2023/11/12 06:06:39;;;;;;;22.30;13.15;;;;;;;-146.27;88.69;33049.31;5024977;28;20083;-71
2023/11/12 06:09:05;;;;;;;21.73;13.70;;;;;;;-146.27;88.64;33037.41;5024761;28;20079;-71
2023/11/12 06:11:30;;;;;;;18.38;12.82;;;;;;;-146.27;88.82;33017.56;5028668;28;20034;-72
2023/11/12 06:13:55;;;;;;;20.52;12.23;;;;;;;-146.27;88.59;33029.47;5034610;28;20537;-71
2023/11/12 06:16:21;;;;;;;19.48;12.13;;;;;;;-146.27;88.56;33053.28;5021501;28;20406;-71
2023/11/12 06:18:48;;;;;;;19.00;12.60;;;;;;;-146.27;88.70;33033.44;5013275;28;20073;-72
2023/11/12 06:21:14;;;;;;;20.00;12.43;;;;;;;-146.27;88.56;33025.50;5013430;28;20458;-72
2023/11/12 06:23:43;;;;;;;20.52;12.88;;;;;;;-146.27;88.64;33081.06;5014291;28;20026;-72
2023/11/12 06:26:10;;;;;;;21.67;13.00;;;;;;;-146.27;88.76;33033.44;5011380;28;20824;-72
2023/11/12 06:28:36;;;;;;;23.02;11.52;;;;;;;-146.27;88.54;33019.56;5012126;28;20026;-72
2023/11/12 06:31:01;;;;;;;18.15;12.13;;;;;;;-146.27;88.68;33039.41;5012890;28;20036;-72
2023/11/12 06:33:27;;;;;;;17.60;11.75;;;;;;;-146.27;88.78;33025.50;5008159;28;20106;-72
2023/11/12 06:35:52;;;;;;;20.83;11.55;;;;;;;-146.27;88.56;33021.53;5008848;28;21048;-70
2023/11/12 06:38:17;;;;;;;24.08;12.48;;;;;;;-146.27;88.72;33029.47;5008611;28;20156;-71
2023/11/12 06:40:43;;;;;;;21.67;11.75;;;;;;;-146.27;88.62;32997.75;5026759;28;20870;-72
2023/11/12 06:43:08;;;;;;;22.30;13.30;;;;;;;-146.27;88.63;33053.28;5013094;28;20048;-72
2023/11/12 06:45:34;;;;;;;22.45;12.13;;;;;;;-146.27;88.56;33087.03;5027933;28;20060;-73
2023/11/12 06:47:59;;;;;;;24.17;12.77;;;;;;;-146.27;88.67;33031.47;5031323;28;20021;-72
2023/11/12 06:50:24;;;;;;;21.95;12.20;;;;;;;-146.27;88.66;33073.13;5027491;28;20389;-72
2023/11/12 06:52:50;;;;;;;19.73;12.90;;;;;;;-146.27;88.73;33049.31;5025947;28;20029;-71
2023/11/12 06:55:15;;;;;;;20.70;12.45;;;;;;;-146.27;88.56;33003.69;5027108;28;20021;-70
2023/11/12 06:57:41;;;;;;;18.67;12.48;;;;;;;-146.27;88.54;33047.34;5032597;28;20037;-72
2023/11/12 07:00:08;;;;;;;23.40;12.55;;;;;;;-146.27;88.51;33049.31;5039362;28;20064;-72
2023/11/12 07:02:34;;;;;;;19.10;12.40;;;;;;;-146.27;88.54;33047.34;5024994;28;20040;-72
2023/11/12 07:04:59;;;;;;;19.77;12.93;;;;;;;-146.27;88.51;33053.28;5036448;28;20029;-73
2023/11/12 07:07:25;;;;;;;30.10;12.95;;;;;;;-146.27;88.63;33053.28;5027482;28;20022;-72
2023/11/12 07:09:51;;;;;;;17.42;12.02;;;;;;;-146.27;88.52;33045.34;5031550;28;20108;-73
2023/11/12 07:12:16;;;;;;;19.98;11.73;;;;;;;-146.27;88.47;33021.53;5035865;28;20030;-72
2023/11/12 07:14:42;;;;;;;23.48;12.57;;;;;;;-146.27;88.54;33053.28;5041651;28;20036;-71
2023/11/12 07:17:08;;;;;;;21.90;12.40;;;;;;;-146.27;88.80;33077.09;5034924;28;20049;-71
2023/11/12 07:19:33;;;;;;;22.55;12.75;;;;;;;-146.27;88.57;33009.66;5040775;28;20025;-72
2023/11/12 07:21:58;;;;;;;19.50;13.60;;;;;;;-146.27;88.56;32989.81;5029522;28;20071;-74
2023/11/12 07:24:24;;;;;;;24.92;13.82;;;;;;;-146.27;88.63;33049.31;5030534;28;20048;-71
2023/11/12 07:26:49;;;;;;;20.17;12.40;;;;;;;-146.27;88.77;33015.59;5038344;28;20035;-72
2023/11/12 07:29:15;;;;;;;23.80;13.27;;;;;;;-146.27;88.46;33031.47;5026347;28;20017;-72
2023/11/12 07:31:42;;;;;;;24.75;11.57;;;;;;;-146.27;88.97;33061.22;5029164;28;20041;-73
2023/11/12 07:34:08;;;;;;;19.30;13.10;;;;;;;-146.27;88.66;33001.72;5032158;28;20017;-72
2023/11/12 07:36:33;;;;;;;17.92;11.68;;;;;;;-146.27;88.67;33055.28;5029861;28;20120;-72
2023/11/12 07:39:01;;;;;;;20.90;12.45;;;;;;;-146.27;88.58;32981.88;5023147;28;20033;-73
2023/11/12 07:41:33;;;;;;;17.33;11.18;;;;;;;-146.27;88.60;33009.66;5029832;28;20021;-72
2023/11/12 07:43:59;;;;;;;22.10;12.13;;;;;;;-146.27;88.41;32979.88;5027567;28;20397;-73
2023/11/12 07:46:24;;;;;;;19.35;10.95;;;;;;;-146.27;88.51;33017.56;5026431;28;20030;-72
2023/11/12 07:48:50;;;;;;;22.67;12.60;;;;;;;-146.27;88.47;32983.84;5022484;28;20022;-72
2023/11/12 07:51:16;;;;;;;20.20;11.43;;;;;;;-146.27;88.35;33017.56;5032438;28;20028;-72
2023/11/12 07:53:41;;;;;;;21.33;11.35;;;;;;;-146.27;88.53;33003.69;5032128;28;20616;-72
2023/11/12 07:56:09;;;;;;;27.55;13.30;;;;;;;-146.27;88.54;32969.97;5031503;28;20116;-71
2023/11/12 07:58:35;;;;;;;19.10;12.48;;;;;;;-146.27;88.38;32967.97;5029812;28;20027;-72
2023/11/12 08:01:01;;;;;;;21.70;12.25;;;;;;;-146.27;88.43;32987.81;5030585;28;20017;-73
2023/11/12 08:03:26;;;;;;;19.50;11.90;;;;;;;-146.27;88.49;33017.56;5028132;28;20388;-73
2023/11/12 08:05:52;;;;;;;18.33;11.73;;;;;;;-146.27;88.20;33001.72;5028861;28;20104;-73
2023/11/12 08:08:17;;;;;;;24.73;12.18;;;;;;;-146.27;88.23;32969.97;5031395;28;20100;-73
2023/11/12 08:10:43;;;;;;;19.55;12.52;;;;;;;-146.27;88.10;33007.66;5028408;28;20033;-73
2023/11/12 08:13:08;;;;;;;20.67;12.20;;;;;;;-146.27;88.39;33049.31;5049838;28;20119;-73
2023/11/12 08:15:34;;;;;;;21.15;13.30;;;;;;;-146.27;88.17;32977.91;5037180;28;20036;-72
2023/11/12 08:17:59;;;;;;;20.15;12.07;;;;;;;-146.27;88.26;32989.81;5026436;28;20096;-73
2023/11/12 08:20:26;;;;;;;22.45;12.15;;;;;;;-146.27;88.26;32987.81;5030968;28;20028;-73
2023/11/12 08:22:51;;;;;;;18.10;12.05;;;;;;;-146.27;88.32;32950.13;5029077;28;20064;-73
2023/11/12 08:25:17;;;;;;;21.02;11.82;;;;;;;-146.27;88.35;32934.25;5036882;28;20053;-72
2023/11/12 08:27:43;;;;;;;25.70;11.68;;;;;;;-146.27;88.65;32868.78;5036363;28;20030;-73
2023/11/12 08:30:09;;;;;;;23.30;13.18;;;;;;;-146.27;88.77;32894.56;5030518;28;20041;-72
2023/11/12 08:32:38;;;;;;;23.92;13.38;;;;;;;-146.27;88.64;32803.31;5031150;28;20026;-73
2023/11/12 08:35:04;;;;;;;24.67;12.68;;;;;;;-146.27;88.70;32767.59;5039262;28;20543;-72
2023/11/12 08:37:29;;;;;;;24.48;12.75;;;;;;;-146.27;88.66;32735.88;5035643;28;20032;-72
2023/11/12 08:39:55;;;;;;;22.70;13.65;;;;;;;-146.27;88.24;32712.06;5039626;28;20108;-74
2023/11/12 08:42:21;;;;;;;24.60;15.52;;;;;;;-146.27;87.97;32725.94;5004413;28;20133;-73
2023/11/12 08:44:46;;;;;;;30.67;15.90;;;;;;;-146.27;87.84;32688.25;5020528;28;20033;-73
2023/11/12 08:47:11;;;;;;;29.27;17.13;;;;;;;-146.27;87.89;32721.97;5038904;28;20035;-72
2023/11/12 08:49:37;;;;;;;30.63;15.70;;;;;;;-146.27;87.57;32688.25;5024078;28;20034;-73
2023/11/12 08:52:02;;;;;;;26.75;16.45;;;;;;;-146.27;87.16;32668.41;5028128;28;20033;-74
2023/11/12 08:54:28;;;;;;;26.83;15.80;;;;;;;-146.27;86.81;32692.22;5040114;28;20034;-72
2023/11/12 08:56:54;;;;;;;25.42;15.20;;;;;;;-146.27;86.78;32688.25;5027004;28;20029;-72
2023/11/12 08:59:19;;;;;;;27.63;15.43;;;;;;;-146.27;86.56;32658.50;5030572;28;20025;-72
2023/11/12 09:01:44;;;;;;;26.60;15.02;;;;;;;-146.27;86.22;32652.53;5034444;28;20025;-72
2023/11/12 09:04:10;;;;;;;27.48;14.25;;;;;;;-146.27;86.31;32672.38;5038872;28;20033;-74
2023/11/12 09:06:35;;;;;;;24.17;14.00;;;;;;;-146.27;86.28;32668.41;5033367;28;21732;-73
2023/11/12 09:09:05;;;;;;;27.48;14.68;;;;;;;-146.27;85.94;32688.25;5037835;28;20032;-71
2023/11/12 09:11:33;;;;;;;22.10;14.52;;;;;;;-146.27;85.89;32668.41;5040879;28;20052;-71
2023/11/12 09:14:00;;;;;;;22.92;14.10;;;;;;;-146.27;85.38;32593.03;5046425;28;20021;-72
2023/11/12 09:16:27;;;;;;;25.42;14.27;;;;;;;-146.27;84.90;32585.09;5038704;28;20036;-71
2023/11/12 09:18:53;;;;;;;24.13;14.00;;;;;;;-146.27;84.61;32593.03;5047013;28;20022;-72
2023/11/12 09:21:19;;;;;;;26.60;14.07;;;;;;;-146.27;84.52;32533.53;5045737;28;20024;-70
2023/11/12 09:23:45;;;;;;;20.95;12.80;;;;;;;-146.27;84.39;32593.03;5037867;28;20033;-73
2023/11/12 09:26:20;;;;;;;20.45;12.52;;;;;;;-146.27;84.19;32648.56;5039713;28;20108;-72
2023/11/12 09:28:46;;;;;;;22.63;12.90;;;;;;;-146.27;84.28;32652.53;5046746;28;20031;-72
2023/11/12 09:31:12;;;;;;;23.10;13.15;;;;;;;-146.27;84.39;32622.78;5029415;28;20076;-71
2023/11/12 09:33:38;;;;;;;25.75;12.93;;;;;;;-146.27;84.45;32567.25;5039973;28;20033;-72
2023/11/12 09:36:04;;;;;;;24.85;13.55;;;;;;;-146.27;84.49;32608.91;5033329;28;20068;-72
2023/11/12 09:38:30;;;;;;;23.48;12.88;;;;;;;-146.27;84.33;32616.84;5027148;28;20449;-72
2023/11/12 09:40:58;;;;;;;27.27;12.07;;;;;;;-146.27;84.42;32606.91;5034943;28;20024;-73
2023/11/12 09:43:28;;;;;;;24.23;13.38;;;;;;;-146.27;84.10;32549.38;5037518;28;20473;-73
2023/11/12 09:45:56;;;;;;;20.85;12.40;;;;;;;-146.27;84.12;32495.84;5030304;28;20116;-72
2023/11/12 09:48:25;;;;;;;23.38;12.80;;;;;;;-146.27;83.80;32505.75;5044626;28;20100;-72
2023/11/12 09:50:52;;;;;;;24.25;12.70;;;;;;;-146.27;83.64;32481.94;5048346;28;20032;-72
2023/11/12 09:53:18;;;;;;;20.08;11.45;;;;;;;-146.27;83.01;32477.97;5037689;28;20021;-72
2023/11/12 09:55:45;;;;;;;17.38;10.73;;;;;;;-146.27;82.83;32472.03;5040479;28;20033;-72
2023/11/12 09:58:10;;;;;;;23.75;11.13;;;;;;;-146.27;82.65;32416.47;5022760;28;20032;-73
2023/11/12 10:00:37;;;;;;;15.60;8.80;;;;;;;-146.27;82.25;32557.31;5035882;28;20024;-71
2023/11/12 10:03:10;;;;;;;14.90;8.82;;;;;;;-146.27;81.90;32454.16;5039405;28;20096;-72
2023/11/12 10:05:36;;;;;;;14.73;9.38;;;;;;;-146.27;81.67;32382.75;5039937;28;20033;-72
2023/11/12 10:08:04;;;;;;;25.10;9.68;;;;;;;-146.27;81.32;32434.34;5047258;28;20029;-72
2023/11/12 10:10:30;;;;;;;19.08;9.00;;;;;;;-146.27;81.21;32283.59;5029906;28;20081;-73
2023/11/12 10:12:58;;;;;;;13.52;8.45;;;;;;;-146.27;81.08;32307.38;5045735;28;20033;-72
2023/11/12 10:15:28;;;;;;;19.63;8.70;;;;;;;-146.27;80.00;32263.75;5041473;28;20056;-72
2023/11/12 10:17:55;;;;;;;14.82;9.10;;;;;;;-146.27;79.25;32232.00;5040981;28;20109;-71
2023/11/12 10:20:31;;;;;;;13.63;8.43;;;;;;;-146.27;79.50;32118.94;5028970;28;20029;-72
2023/11/12 10:22:57;;;;;;;17.10;7.97;;;;;;;-146.27;78.56;31982.09;5041440;28;20113;-72
2023/11/12 10:25:39;;;;;;;11.35;7.75;;;;;;;-146.27;77.23;31942.41;5042432;28;20147;-72
2023/11/12 10:28:08;;;;;;;18.02;8.57;;;;;;;-146.27;75.78;31974.16;5035040;28;20026;-71
2023/11/12 10:30:36;;;;;;;10.73;8.30;;;;;;;-146.27;76.00;31934.47;5034207;28;20033;-71
2023/11/12 10:33:26;;;;;;;14.82;7.85;;;;;;;-146.27;75.10;31938.44;5032228;28;20026;-71
2023/11/12 10:35:52;;;;;;;16.55;7.65;;;;;;;-146.27;75.26;31831.34;5034395;28;20057;-69
2023/11/12 10:38:18;;;;;;;11.27;6.95;;;;;;;-146.27;75.02;31648.88;5042661;28;20013;-71
2023/11/12 10:41:04;;;;;;;12.38;6.88;;;;;;;-146.27;74.21;31504.09;5044291;28;20033;-70
2023/11/12 10:43:31;;;;;;;9.90;6.45;;;;;;;-146.27;72.30;31311.75;5038841;28;20028;-72
2023/11/12 10:45:58;;;;;;;12.30;6.03;;;;;;;-146.27;70.54;31012.31;5033930;28;20095;-73
2023/11/12 10:48:35;;;;;;;7.60;5.05;;;;;;;-146.27;68.44;30724.78;5040762;28;20067;-71
2023/11/12 10:51:06;;;;;;;8.38;4.28;;;;;;;-146.27;64.26;30714.88;5043751;28;20108;-71
2023/11/12 10:53:33;;;;;;;8.20;4.15;;;;;;;-146.27;63.54;30683.16;5046481;28;20026;-71
2023/11/12 10:56:00;;;;;;;7.15;3.90;;;;;;;-146.27;61.34;30887.38;5032363;28;20496;-71
2023/11/12 10:58:28;;;;;;;5.97;4.13;;;;;;;-146.27;60.76;31089.63;5019370;28;20442;-72
2023/11/12 11:00:57;;;;;;;9.45;4.93;;;;;;;-146.27;62.01;31129.28;5048486;28;20073;-71
2023/11/12 11:03:26;;;;;;;10.48;5.85;;;;;;;-146.27;62.84;31395.03;5037211;28;20461;-72